sensor_id;sensor_type;location;lat;lon;timestamp;P1;durP1;ratioP1;P2;durP2;ratioP2
64907;SDS011;69061;52.236;5.188;2023-09-18T00:00:16;36.97;;;25.55;;
64907;SDS011;69061;52.236;5.188;2023-09-18T00:02:42;37.47;;;24.13;;
64907;SDS011;69061;52.236;5.188;2023-09-18T00:05:09;39.70;;;26.52;;
64907;SDS011;69061;52.236;5.188;2023-09-18T00:07:39;34.03;;;21.27;;
64907;SDS011;69061;52.236;5.188;2023-09-18T00:10:08;31.27;;;21.05;;
64907;SDS011;69061;52.236;5.188;2023-09-18T00:12:35;40.20;;;25.63;;
64907;SDS011;69061;52.236;5.188;2023-09-18T00:15:02;33.30;;;23.33;;
64907;SDS011;69061;52.236;5.188;2023-09-18T00:17:31;38.40;;;26.48;;
64907;SDS011;69061;52.236;5.188;2023-09-18T00:19:57;36.97;;;24.40;;
64907;SDS011;69061;52.236;5.188;2023-09-18T00:22:24;33.38;;;24.40;;
64907;SDS011;69061;52.236;5.188;2023-09-18T00:24:51;34.20;;;24.17;;
64907;SDS011;69061;52.236;5.188;2023-09-18T00:27:19;43.38;;;29.15;;
64907;SDS011;69061;52.236;5.188;2023-09-18T00:29:46;37.58;;;27.77;;
64907;SDS011;69061;52.236;5.188;2023-09-18T00:32:13;38.20;;;26.80;;
64907;SDS011;69061;52.236;5.188;2023-09-18T00:34:39;45.65;;;28.55;;
64907;SDS011;69061;52.236;5.188;2023-09-18T00:37:06;42.47;;;29.70;;
64907;SDS011;69061;52.236;5.188;2023-09-18T00:39:33;34.25;;;24.00;;
64907;SDS011;69061;52.236;5.188;2023-09-18T00:42:00;39.50;;;28.15;;
64907;SDS011;69061;52.236;5.188;2023-09-18T00:44:29;30.50;;;21.08;;
64907;SDS011;69061;52.236;5.188;2023-09-18T00:46:56;39.13;;;27.02;;
64907;SDS011;69061;52.236;5.188;2023-09-18T00:49:23;43.35;;;29.20;;
64907;SDS011;69061;52.236;5.188;2023-09-18T00:51:51;35.90;;;23.92;;
64907;SDS011;69061;52.236;5.188;2023-09-18T00:54:18;32.17;;;21.30;;
64907;SDS011;69061;52.236;5.188;2023-09-18T00:56:45;39.50;;;25.52;;
64907;SDS011;69061;52.236;5.188;2023-09-18T00:59:18;34.33;;;23.10;;
64907;SDS011;69061;52.236;5.188;2023-09-18T01:01:47;39.17;;;27.65;;
64907;SDS011;69061;52.236;5.188;2023-09-18T01:04:16;36.72;;;25.40;;
64907;SDS011;69061;52.236;5.188;2023-09-18T01:06:43;31.13;;;20.13;;
64907;SDS011;69061;52.236;5.188;2023-09-18T01:09:10;35.10;;;24.92;;
64907;SDS011;69061;52.236;5.188;2023-09-18T01:11:42;46.42;;;29.20;;
64907;SDS011;69061;52.236;5.188;2023-09-18T01:14:17;37.20;;;24.58;;
64907;SDS011;69061;52.236;5.188;2023-09-18T01:16:50;30.35;;;22.00;;
64907;SDS011;69061;52.236;5.188;2023-09-18T01:19:34;38.92;;;25.70;;
64907;SDS011;69061;52.236;5.188;2023-09-18T01:22:03;36.78;;;20.15;;
64907;SDS011;69061;52.236;5.188;2023-09-18T01:24:31;36.92;;;26.20;;
64907;SDS011;69061;52.236;5.188;2023-09-18T01:26:59;38.60;;;26.23;;
64907;SDS011;69061;52.236;5.188;2023-09-18T01:29:26;35.55;;;23.77;;
64907;SDS011;69061;52.236;5.188;2023-09-18T01:31:53;37.28;;;26.80;;
64907;SDS011;69061;52.236;5.188;2023-09-18T01:34:20;42.92;;;27.60;;
64907;SDS011;69061;52.236;5.188;2023-09-18T01:36:51;34.45;;;25.48;;
64907;SDS011;69061;52.236;5.188;2023-09-18T01:39:18;32.83;;;22.83;;
64907;SDS011;69061;52.236;5.188;2023-09-18T01:41:47;31.05;;;21.60;;
64907;SDS011;69061;52.236;5.188;2023-09-18T01:44:14;36.00;;;25.08;;
64907;SDS011;69061;52.236;5.188;2023-09-18T01:46:41;38.78;;;25.15;;
64907;SDS011;69061;52.236;5.188;2023-09-18T01:49:09;39.25;;;26.42;;
64907;SDS011;69061;52.236;5.188;2023-09-18T01:51:36;38.00;;;24.80;;
64907;SDS011;69061;52.236;5.188;2023-09-18T01:54:03;36.53;;;27.00;;
64907;SDS011;69061;52.236;5.188;2023-09-18T01:56:29;31.45;;;22.52;;
64907;SDS011;69061;52.236;5.188;2023-09-18T01:58:58;32.15;;;24.27;;
64907;SDS011;69061;52.236;5.188;2023-09-18T02:01:24;41.00;;;26.92;;
64907;SDS011;69061;52.236;5.188;2023-09-18T02:03:51;39.72;;;28.15;;
64907;SDS011;69061;52.236;5.188;2023-09-18T02:06:17;34.97;;;23.63;;
64907;SDS011;69061;52.236;5.188;2023-09-18T02:08:44;35.28;;;23.40;;
64907;SDS011;69061;52.236;5.188;2023-09-18T02:11:11;29.10;;;21.00;;
64907;SDS011;69061;52.236;5.188;2023-09-18T02:13:39;33.92;;;24.02;;
64907;SDS011;69061;52.236;5.188;2023-09-18T02:16:08;35.88;;;23.45;;
64907;SDS011;69061;52.236;5.188;2023-09-18T02:18:35;32.85;;;21.13;;
64907;SDS011;69061;52.236;5.188;2023-09-18T02:21:01;34.05;;;24.38;;
64907;SDS011;69061;52.236;5.188;2023-09-18T02:23:28;34.53;;;22.08;;
64907;SDS011;69061;52.236;5.188;2023-09-18T02:25:55;31.00;;;21.10;;
64907;SDS011;69061;52.236;5.188;2023-09-18T02:28:22;37.63;;;24.83;;
64907;SDS011;69061;52.236;5.188;2023-09-18T02:30:49;37.72;;;25.52;;
64907;SDS011;69061;52.236;5.188;2023-09-18T02:33:17;29.58;;;21.45;;
64907;SDS011;69061;52.236;5.188;2023-09-18T02:35:44;38.95;;;27.35;;
64907;SDS011;69061;52.236;5.188;2023-09-18T02:38:10;38.13;;;26.10;;
64907;SDS011;69061;52.236;5.188;2023-09-18T02:40:37;30.08;;;21.67;;
64907;SDS011;69061;52.236;5.188;2023-09-18T02:43:04;44.17;;;26.88;;
64907;SDS011;69061;52.236;5.188;2023-09-18T02:45:30;34.20;;;21.27;;
64907;SDS011;69061;52.236;5.188;2023-09-18T02:47:58;37.40;;;26.02;;
64907;SDS011;69061;52.236;5.188;2023-09-18T02:50:26;28.30;;;19.73;;
64907;SDS011;69061;52.236;5.188;2023-09-18T02:52:52;32.10;;;22.85;;
64907;SDS011;69061;52.236;5.188;2023-09-18T02:55:19;25.55;;;18.65;;
64907;SDS011;69061;52.236;5.188;2023-09-18T02:57:46;27.77;;;19.77;;
64907;SDS011;69061;52.236;5.188;2023-09-18T03:00:13;37.85;;;25.83;;
64907;SDS011;69061;52.236;5.188;2023-09-18T03:02:40;29.98;;;21.77;;
64907;SDS011;69061;52.236;5.188;2023-09-18T03:05:07;33.78;;;23.02;;
64907;SDS011;69061;52.236;5.188;2023-09-18T03:07:36;23.67;;;17.77;;
64907;SDS011;69061;52.236;5.188;2023-09-18T03:10:03;26.95;;;18.00;;
64907;SDS011;69061;52.236;5.188;2023-09-18T03:12:31;32.10;;;23.13;;
64907;SDS011;69061;52.236;5.188;2023-09-18T03:14:58;39.20;;;27.20;;
64907;SDS011;69061;52.236;5.188;2023-09-18T03:17:25;37.45;;;25.08;;
64907;SDS011;69061;52.236;5.188;2023-09-18T03:19:52;28.55;;;21.33;;
64907;SDS011;69061;52.236;5.188;2023-09-18T03:22:18;31.15;;;22.23;;
64907;SDS011;69061;52.236;5.188;2023-09-18T03:24:46;27.77;;;20.42;;
64907;SDS011;69061;52.236;5.188;2023-09-18T03:27:13;36.55;;;25.25;;
64907;SDS011;69061;52.236;5.188;2023-09-18T03:29:39;30.77;;;21.65;;
64907;SDS011;69061;52.236;5.188;2023-09-18T03:32:06;34.70;;;21.30;;
64907;SDS011;69061;52.236;5.188;2023-09-18T03:34:37;40.88;;;26.55;;
64907;SDS011;69061;52.236;5.188;2023-09-18T03:37:04;39.63;;;24.88;;
64907;SDS011;69061;52.236;5.188;2023-09-18T03:39:30;38.30;;;27.13;;
64907;SDS011;69061;52.236;5.188;2023-09-18T03:41:58;42.35;;;28.00;;
64907;SDS011;69061;52.236;5.188;2023-09-18T03:44:25;44.63;;;25.77;;
64907;SDS011;69061;52.236;5.188;2023-09-18T03:46:52;37.72;;;24.73;;
64907;SDS011;69061;52.236;5.188;2023-09-18T03:49:18;33.90;;;23.08;;
64907;SDS011;69061;52.236;5.188;2023-09-18T03:51:45;36.75;;;22.92;;
64907;SDS011;69061;52.236;5.188;2023-09-18T03:54:12;28.33;;;18.85;;
64907;SDS011;69061;52.236;5.188;2023-09-18T03:56:39;35.10;;;22.60;;
64907;SDS011;69061;52.236;5.188;2023-09-18T03:59:08;36.05;;;22.50;;
64907;SDS011;69061;52.236;5.188;2023-09-18T04:01:34;36.78;;;23.27;;
64907;SDS011;69061;52.236;5.188;2023-09-18T04:04:01;39.13;;;25.35;;
64907;SDS011;69061;52.236;5.188;2023-09-18T04:06:35;40.47;;;25.05;;
64907;SDS011;69061;52.236;5.188;2023-09-18T04:09:02;44.17;;;26.20;;
64907;SDS011;69061;52.236;5.188;2023-09-18T04:11:30;39.72;;;24.80;;
64907;SDS011;69061;52.236;5.188;2023-09-18T04:13:57;39.60;;;25.77;;
64907;SDS011;69061;52.236;5.188;2023-09-18T04:16:25;41.03;;;25.77;;
64907;SDS011;69061;52.236;5.188;2023-09-18T04:18:52;43.70;;;27.33;;
64907;SDS011;69061;52.236;5.188;2023-09-18T04:21:19;40.00;;;25.88;;
64907;SDS011;69061;52.236;5.188;2023-09-18T04:23:46;40.00;;;25.45;;
64907;SDS011;69061;52.236;5.188;2023-09-18T04:26:13;41.90;;;25.55;;
64907;SDS011;69061;52.236;5.188;2023-09-18T04:28:41;37.78;;;23.33;;
64907;SDS011;69061;52.236;5.188;2023-09-18T04:31:08;30.27;;;20.75;;
64907;SDS011;69061;52.236;5.188;2023-09-18T04:33:37;25.48;;;17.08;;
64907;SDS011;69061;52.236;5.188;2023-09-18T04:36:04;19.95;;;10.38;;
64907;SDS011;69061;52.236;5.188;2023-09-18T04:38:31;15.93;;;7.88;;
64907;SDS011;69061;52.236;5.188;2023-09-18T04:40:58;11.20;;;5.95;;
64907;SDS011;69061;52.236;5.188;2023-09-18T04:43:25;7.30;;;4.95;;
64907;SDS011;69061;52.236;5.188;2023-09-18T04:45:54;7.63;;;4.95;;
64907;SDS011;69061;52.236;5.188;2023-09-18T04:48:21;12.85;;;6.22;;
64907;SDS011;69061;52.236;5.188;2023-09-18T04:50:49;14.73;;;7.68;;
64907;SDS011;69061;52.236;5.188;2023-09-18T04:53:16;18.63;;;8.48;;
64907;SDS011;69061;52.236;5.188;2023-09-18T04:55:43;20.25;;;8.55;;
64907;SDS011;69061;52.236;5.188;2023-09-18T04:58:10;17.25;;;9.20;;
64907;SDS011;69061;52.236;5.188;2023-09-18T05:00:37;14.15;;;8.48;;
64907;SDS011;69061;52.236;5.188;2023-09-18T05:03:03;16.83;;;8.68;;
64907;SDS011;69061;52.236;5.188;2023-09-18T05:05:31;13.40;;;8.40;;
64907;SDS011;69061;52.236;5.188;2023-09-18T05:07:59;12.68;;;8.23;;
64907;SDS011;69061;52.236;5.188;2023-09-18T05:10:28;12.98;;;8.80;;
64907;SDS011;69061;52.236;5.188;2023-09-18T05:12:55;14.50;;;9.13;;
64907;SDS011;69061;52.236;5.188;2023-09-18T05:15:24;16.85;;;8.88;;
64907;SDS011;69061;52.236;5.188;2023-09-18T05:17:54;14.38;;;8.63;;
64907;SDS011;69061;52.236;5.188;2023-09-18T05:20:23;14.60;;;9.15;;
64907;SDS011;69061;52.236;5.188;2023-09-18T05:22:51;17.70;;;10.40;;
64907;SDS011;69061;52.236;5.188;2023-09-18T05:25:20;17.70;;;10.63;;
64907;SDS011;69061;52.236;5.188;2023-09-18T05:27:48;17.77;;;10.73;;
64907;SDS011;69061;52.236;5.188;2023-09-18T05:30:24;14.87;;;10.40;;
64907;SDS011;69061;52.236;5.188;2023-09-18T05:32:54;17.13;;;10.90;;
64907;SDS011;69061;52.236;5.188;2023-09-18T05:35:21;17.55;;;11.10;;
64907;SDS011;69061;52.236;5.188;2023-09-18T05:37:48;17.23;;;11.25;;
64907;SDS011;69061;52.236;5.188;2023-09-18T05:40:15;16.15;;;11.15;;
64907;SDS011;69061;52.236;5.188;2023-09-18T05:42:43;14.95;;;10.45;;
64907;SDS011;69061;52.236;5.188;2023-09-18T05:45:10;20.77;;;11.93;;
64907;SDS011;69061;52.236;5.188;2023-09-18T05:47:38;17.48;;;11.75;;
64907;SDS011;69061;52.236;5.188;2023-09-18T05:50:05;21.10;;;11.82;;
64907;SDS011;69061;52.236;5.188;2023-09-18T05:52:33;18.23;;;11.88;;
64907;SDS011;69061;52.236;5.188;2023-09-18T05:55:00;18.17;;;12.75;;
64907;SDS011;69061;52.236;5.188;2023-09-18T05:57:26;19.60;;;11.10;;
64907;SDS011;69061;52.236;5.188;2023-09-18T05:59:55;13.10;;;9.90;;
64907;SDS011;69061;52.236;5.188;2023-09-18T06:02:22;20.08;;;11.90;;
64907;SDS011;69061;52.236;5.188;2023-09-18T06:04:50;20.77;;;12.88;;
64907;SDS011;69061;52.236;5.188;2023-09-18T06:07:21;32.65;;;18.48;;
64907;SDS011;69061;52.236;5.188;2023-09-18T06:09:48;24.10;;;15.15;;
64907;SDS011;69061;52.236;5.188;2023-09-18T06:12:15;25.33;;;14.93;;
64907;SDS011;69061;52.236;5.188;2023-09-18T06:14:41;22.50;;;13.10;;
64907;SDS011;69061;52.236;5.188;2023-09-18T06:17:10;22.58;;;13.90;;
64907;SDS011;69061;52.236;5.188;2023-09-18T06:19:36;25.02;;;15.30;;
64907;SDS011;69061;52.236;5.188;2023-09-18T06:22:04;21.77;;;12.77;;
64907;SDS011;69061;52.236;5.188;2023-09-18T06:24:32;22.45;;;12.93;;
64907;SDS011;69061;52.236;5.188;2023-09-18T06:27:02;23.30;;;13.85;;
64907;SDS011;69061;52.236;5.188;2023-09-18T06:29:30;25.05;;;14.90;;
64907;SDS011;69061;52.236;5.188;2023-09-18T06:31:58;22.70;;;13.02;;
64907;SDS011;69061;52.236;5.188;2023-09-18T06:34:26;22.67;;;13.93;;
64907;SDS011;69061;52.236;5.188;2023-09-18T06:36:53;22.10;;;14.77;;
64907;SDS011;69061;52.236;5.188;2023-09-18T06:39:20;25.20;;;15.45;;
64907;SDS011;69061;52.236;5.188;2023-09-18T06:41:49;26.10;;;15.55;;
64907;SDS011;69061;52.236;5.188;2023-09-18T06:44:15;23.02;;;14.52;;
64907;SDS011;69061;52.236;5.188;2023-09-18T06:46:42;20.02;;;14.00;;
64907;SDS011;69061;52.236;5.188;2023-09-18T06:49:09;23.13;;;15.18;;
64907;SDS011;69061;52.236;5.188;2023-09-18T06:51:37;22.20;;;14.30;;
64907;SDS011;69061;52.236;5.188;2023-09-18T06:54:04;22.08;;;14.85;;
64907;SDS011;69061;52.236;5.188;2023-09-18T06:56:31;22.55;;;13.20;;
64907;SDS011;69061;52.236;5.188;2023-09-18T06:58:57;25.58;;;15.15;;
64907;SDS011;69061;52.236;5.188;2023-09-18T07:01:24;23.35;;;14.23;;
64907;SDS011;69061;52.236;5.188;2023-09-18T07:03:52;23.30;;;15.13;;
64907;SDS011;69061;52.236;5.188;2023-09-18T07:06:19;26.45;;;13.65;;
64907;SDS011;69061;52.236;5.188;2023-09-18T07:08:47;20.92;;;13.60;;
64907;SDS011;69061;52.236;5.188;2023-09-18T07:11:14;26.08;;;13.80;;
64907;SDS011;69061;52.236;5.188;2023-09-18T07:13:41;24.48;;;13.57;;
64907;SDS011;69061;52.236;5.188;2023-09-18T07:16:08;23.42;;;13.32;;
64907;SDS011;69061;52.236;5.188;2023-09-18T07:18:35;18.80;;;13.05;;
64907;SDS011;69061;52.236;5.188;2023-09-18T07:21:02;20.38;;;13.23;;
64907;SDS011;69061;52.236;5.188;2023-09-18T07:23:29;27.55;;;14.57;;
64907;SDS011;69061;52.236;5.188;2023-09-18T07:25:57;24.17;;;13.98;;
64907;SDS011;69061;52.236;5.188;2023-09-18T07:28:24;20.02;;;13.23;;
64907;SDS011;69061;52.236;5.188;2023-09-18T07:30:52;22.27;;;12.45;;
64907;SDS011;69061;52.236;5.188;2023-09-18T07:33:19;19.83;;;12.98;;
64907;SDS011;69061;52.236;5.188;2023-09-18T07:35:46;19.02;;;12.82;;
64907;SDS011;69061;52.236;5.188;2023-09-18T07:38:13;20.67;;;11.68;;
64907;SDS011;69061;52.236;5.188;2023-09-18T07:40:40;20.77;;;12.65;;
64907;SDS011;69061;52.236;5.188;2023-09-18T07:43:08;20.45;;;12.70;;
64907;SDS011;69061;52.236;5.188;2023-09-18T07:45:37;19.67;;;13.27;;
64907;SDS011;69061;52.236;5.188;2023-09-18T07:48:04;24.95;;;14.10;;
64907;SDS011;69061;52.236;5.188;2023-09-18T07:50:32;23.83;;;12.68;;
64907;SDS011;69061;52.236;5.188;2023-09-18T07:52:59;27.15;;;14.43;;
64907;SDS011;69061;52.236;5.188;2023-09-18T07:55:25;17.83;;;13.27;;
64907;SDS011;69061;52.236;5.188;2023-09-18T07:57:52;22.25;;;13.48;;
64907;SDS011;69061;52.236;5.188;2023-09-18T08:00:20;23.02;;;13.52;;
64907;SDS011;69061;52.236;5.188;2023-09-18T08:02:47;18.02;;;12.20;;
64907;SDS011;69061;52.236;5.188;2023-09-18T08:05:15;22.10;;;14.43;;
64907;SDS011;69061;52.236;5.188;2023-09-18T08:07:42;19.00;;;13.20;;
64907;SDS011;69061;52.236;5.188;2023-09-18T08:10:09;26.90;;;13.40;;
64907;SDS011;69061;52.236;5.188;2023-09-18T08:12:37;18.65;;;12.68;;
64907;SDS011;69061;52.236;5.188;2023-09-18T08:15:04;15.88;;;10.82;;
64907;SDS011;69061;52.236;5.188;2023-09-18T08:17:33;25.65;;;12.05;;
64907;SDS011;69061;52.236;5.188;2023-09-18T08:20:00;31.13;;;19.27;;
64907;SDS011;69061;52.236;5.188;2023-09-18T08:22:26;21.13;;;12.93;;
64907;SDS011;69061;52.236;5.188;2023-09-18T08:24:52;21.30;;;12.23;;
64907;SDS011;69061;52.236;5.188;2023-09-18T08:27:19;20.52;;;12.88;;
64907;SDS011;69061;52.236;5.188;2023-09-18T08:29:46;19.48;;;12.65;;
64907;SDS011;69061;52.236;5.188;2023-09-18T08:32:12;20.10;;;12.10;;
64907;SDS011;69061;52.236;5.188;2023-09-18T08:34:41;21.65;;;14.90;;
64907;SDS011;69061;52.236;5.188;2023-09-18T08:37:07;26.65;;;14.15;;
64907;SDS011;69061;52.236;5.188;2023-09-18T08:39:34;21.85;;;14.50;;
64907;SDS011;69061;52.236;5.188;2023-09-18T08:42:03;18.05;;;13.25;;
64907;SDS011;69061;52.236;5.188;2023-09-18T08:44:31;20.67;;;14.30;;
64907;SDS011;69061;52.236;5.188;2023-09-18T08:46:57;21.38;;;13.40;;
64907;SDS011;69061;52.236;5.188;2023-09-18T08:49:24;18.92;;;12.18;;
64907;SDS011;69061;52.236;5.188;2023-09-18T08:51:54;20.23;;;12.43;;
64907;SDS011;69061;52.236;5.188;2023-09-18T08:54:21;24.55;;;12.85;;
64907;SDS011;69061;52.236;5.188;2023-09-18T08:56:49;19.73;;;11.20;;
64907;SDS011;69061;52.236;5.188;2023-09-18T08:59:16;16.35;;;10.50;;
64907;SDS011;69061;52.236;5.188;2023-09-18T09:01:44;14.82;;;10.75;;
64907;SDS011;69061;52.236;5.188;2023-09-18T09:04:10;19.42;;;11.88;;
64907;SDS011;69061;52.236;5.188;2023-09-18T09:06:37;20.25;;;11.30;;
64907;SDS011;69061;52.236;5.188;2023-09-18T09:09:05;15.13;;;10.43;;
64907;SDS011;69061;52.236;5.188;2023-09-18T09:11:33;14.20;;;9.13;;
64907;SDS011;69061;52.236;5.188;2023-09-18T09:14:10;18.38;;;10.27;;
64907;SDS011;69061;52.236;5.188;2023-09-18T09:16:46;16.05;;;9.77;;
64907;SDS011;69061;52.236;5.188;2023-09-18T09:19:15;22.40;;;10.90;;
64907;SDS011;69061;52.236;5.188;2023-09-18T09:21:42;17.50;;;10.23;;
64907;SDS011;69061;52.236;5.188;2023-09-18T09:24:11;15.93;;;10.68;;
64907;SDS011;69061;52.236;5.188;2023-09-18T09:26:40;17.92;;;10.25;;
64907;SDS011;69061;52.236;5.188;2023-09-18T09:29:15;16.73;;;10.90;;
64907;SDS011;69061;52.236;5.188;2023-09-18T09:31:44;17.08;;;10.15;;
64907;SDS011;69061;52.236;5.188;2023-09-18T09:34:11;12.43;;;9.85;;
64907;SDS011;69061;52.236;5.188;2023-09-18T09:36:50;14.75;;;9.18;;
64907;SDS011;69061;52.236;5.188;2023-09-18T09:39:20;14.52;;;10.05;;
64907;SDS011;69061;52.236;5.188;2023-09-18T09:41:50;13.70;;;9.95;;
64907;SDS011;69061;52.236;5.188;2023-09-18T09:44:17;16.27;;;11.20;;
64907;SDS011;69061;52.236;5.188;2023-09-18T09:46:46;12.48;;;9.15;;
64907;SDS011;69061;52.236;5.188;2023-09-18T09:49:13;12.95;;;9.55;;
64907;SDS011;69061;52.236;5.188;2023-09-18T09:51:41;14.82;;;9.98;;
64907;SDS011;69061;52.236;5.188;2023-09-18T09:54:08;12.07;;;8.80;;
64907;SDS011;69061;52.236;5.188;2023-09-18T09:56:44;12.25;;;8.63;;
64907;SDS011;69061;52.236;5.188;2023-09-18T09:59:13;11.35;;;8.00;;
64907;SDS011;69061;52.236;5.188;2023-09-18T10:01:41;17.08;;;9.68;;
64907;SDS011;69061;52.236;5.188;2023-09-18T10:04:10;12.05;;;9.05;;
64907;SDS011;69061;52.236;5.188;2023-09-18T10:06:40;19.00;;;9.18;;
64907;SDS011;69061;52.236;5.188;2023-09-18T10:09:10;14.32;;;9.25;;
64907;SDS011;69061;52.236;5.188;2023-09-18T10:11:41;12.73;;;8.70;;
64907;SDS011;69061;52.236;5.188;2023-09-18T10:14:14;13.32;;;8.05;;
64907;SDS011;69061;52.236;5.188;2023-09-18T10:16:45;15.32;;;9.15;;
64907;SDS011;69061;52.236;5.188;2023-09-18T10:19:17;13.20;;;8.93;;
64907;SDS011;69061;52.236;5.188;2023-09-18T10:21:56;13.57;;;9.35;;
64907;SDS011;69061;52.236;5.188;2023-09-18T10:24:32;13.48;;;10.48;;
64907;SDS011;69061;52.236;5.188;2023-09-18T10:27:02;15.82;;;10.43;;
64907;SDS011;69061;52.236;5.188;2023-09-18T10:29:32;19.25;;;10.18;;
64907;SDS011;69061;52.236;5.188;2023-09-18T10:32:00;13.82;;;9.65;;
64907;SDS011;69061;52.236;5.188;2023-09-18T10:34:28;13.75;;;9.30;;
64907;SDS011;69061;52.236;5.188;2023-09-18T10:36:58;14.50;;;10.65;;
64907;SDS011;69061;52.236;5.188;2023-09-18T10:39:26;17.63;;;10.93;;
64907;SDS011;69061;52.236;5.188;2023-09-18T10:41:55;15.38;;;11.27;;
64907;SDS011;69061;52.236;5.188;2023-09-18T10:44:23;12.00;;;10.65;;
64907;SDS011;69061;52.236;5.188;2023-09-18T10:46:51;16.55;;;11.15;;
64907;SDS011;69061;52.236;5.188;2023-09-18T10:49:19;14.30;;;10.35;;
64907;SDS011;69061;52.236;5.188;2023-09-18T10:51:46;13.43;;;10.98;;
64907;SDS011;69061;52.236;5.188;2023-09-18T10:54:14;16.00;;;11.70;;
64907;SDS011;69061;52.236;5.188;2023-09-18T10:56:44;14.60;;;11.07;;
64907;SDS011;69061;52.236;5.188;2023-09-18T10:59:11;16.25;;;10.73;;
64907;SDS011;69061;52.236;5.188;2023-09-18T11:01:40;16.45;;;11.93;;
64907;SDS011;69061;52.236;5.188;2023-09-18T11:04:11;17.58;;;11.20;;
64907;SDS011;69061;52.236;5.188;2023-09-18T11:09:30;16.20;;;9.45;;
64907;SDS011;69061;52.236;5.188;2023-09-18T11:12:02;10.43;;;8.48;;
64907;SDS011;69061;52.236;5.188;2023-09-18T11:14:45;19.08;;;9.48;;
64907;SDS011;69061;52.236;5.188;2023-09-18T11:17:27;10.63;;;8.60;;
64907;SDS011;69061;52.236;5.188;2023-09-18T11:20:02;15.90;;;10.40;;
64907;SDS011;69061;52.236;5.188;2023-09-18T11:22:36;13.68;;;10.07;;
64907;SDS011;69061;52.236;5.188;2023-09-18T11:27:56;12.77;;;10.18;;
64907;SDS011;69061;52.236;5.188;2023-09-18T11:30:24;15.82;;;9.48;;
64907;SDS011;69061;52.236;5.188;2023-09-18T11:32:51;14.23;;;10.27;;
64907;SDS011;69061;52.236;5.188;2023-09-18T11:35:20;14.90;;;10.85;;
64907;SDS011;69061;52.236;5.188;2023-09-18T11:37:47;12.13;;;8.68;;
64907;SDS011;69061;52.236;5.188;2023-09-18T11:45:52;12.05;;;9.73;;
64907;SDS011;69061;52.236;5.188;2023-09-18T11:48:20;16.55;;;10.27;;
64907;SDS011;69061;52.236;5.188;2023-09-18T11:50:54;16.55;;;11.38;;
64907;SDS011;69061;52.236;5.188;2023-09-18T11:53:21;15.45;;;10.57;;
64907;SDS011;69061;52.236;5.188;2023-09-18T11:55:49;18.05;;;10.45;;
64907;SDS011;69061;52.236;5.188;2023-09-18T11:58:16;14.82;;;10.40;;
64907;SDS011;69061;52.236;5.188;2023-09-18T12:00:48;11.15;;;8.73;;
64907;SDS011;69061;52.236;5.188;2023-09-18T12:03:16;14.35;;;9.90;;
64907;SDS011;69061;52.236;5.188;2023-09-18T12:05:51;13.45;;;10.10;;
64907;SDS011;69061;52.236;5.188;2023-09-18T12:08:21;17.30;;;9.32;;
64907;SDS011;69061;52.236;5.188;2023-09-18T12:10:51;11.32;;;9.25;;
64907;SDS011;69061;52.236;5.188;2023-09-18T12:13:18;26.48;;;10.85;;
64907;SDS011;69061;52.236;5.188;2023-09-18T12:15:45;11.70;;;8.90;;
64907;SDS011;69061;52.236;5.188;2023-09-18T12:18:13;14.75;;;9.15;;
64907;SDS011;69061;52.236;5.188;2023-09-18T12:20:47;13.07;;;8.90;;
64907;SDS011;69061;52.236;5.188;2023-09-18T12:23:16;11.80;;;7.65;;
64907;SDS011;69061;52.236;5.188;2023-09-18T12:25:45;16.33;;;8.32;;
64907;SDS011;69061;52.236;5.188;2023-09-18T12:28:14;13.48;;;7.80;;
64907;SDS011;69061;52.236;5.188;2023-09-18T12:30:41;17.17;;;8.73;;
64907;SDS011;69061;52.236;5.188;2023-09-18T12:33:08;18.92;;;8.93;;
64907;SDS011;69061;52.236;5.188;2023-09-18T12:35:35;15.68;;;8.43;;
64907;SDS011;69061;52.236;5.188;2023-09-18T12:38:03;14.52;;;8.68;;
64907;SDS011;69061;52.236;5.188;2023-09-18T12:40:41;14.73;;;8.60;;
64907;SDS011;69061;52.236;5.188;2023-09-18T12:43:11;11.95;;;7.80;;
64907;SDS011;69061;52.236;5.188;2023-09-18T12:45:39;21.48;;;10.05;;
64907;SDS011;69061;52.236;5.188;2023-09-18T12:48:07;12.50;;;8.55;;
64907;SDS011;69061;52.236;5.188;2023-09-18T12:50:35;16.42;;;8.80;;
64907;SDS011;69061;52.236;5.188;2023-09-18T12:53:09;15.48;;;9.15;;
64907;SDS011;69061;52.236;5.188;2023-09-18T12:55:37;12.02;;;7.82;;
64907;SDS011;69061;52.236;5.188;2023-09-18T12:58:05;12.68;;;8.65;;
64907;SDS011;69061;52.236;5.188;2023-09-18T13:00:33;12.25;;;8.10;;
64907;SDS011;69061;52.236;5.188;2023-09-18T13:03:01;15.45;;;9.15;;
64907;SDS011;69061;52.236;5.188;2023-09-18T13:05:29;13.85;;;7.72;;
64907;SDS011;69061;52.236;5.188;2023-09-18T13:08:00;13.23;;;7.88;;
64907;SDS011;69061;52.236;5.188;2023-09-18T13:10:29;13.40;;;7.90;;
64907;SDS011;69061;52.236;5.188;2023-09-18T13:12:55;13.68;;;7.22;;
64907;SDS011;69061;52.236;5.188;2023-09-18T13:15:26;10.57;;;6.65;;
64907;SDS011;69061;52.236;5.188;2023-09-18T13:17:53;13.00;;;7.90;;
64907;SDS011;69061;52.236;5.188;2023-09-18T13:20:22;11.07;;;7.55;;
64907;SDS011;69061;52.236;5.188;2023-09-18T13:22:52;13.27;;;7.72;;
64907;SDS011;69061;52.236;5.188;2023-09-18T13:25:20;12.15;;;7.72;;
64907;SDS011;69061;52.236;5.188;2023-09-18T13:27:47;14.93;;;8.13;;
64907;SDS011;69061;52.236;5.188;2023-09-18T13:30:14;12.73;;;7.97;;
64907;SDS011;69061;52.236;5.188;2023-09-18T13:32:49;14.40;;;9.38;;
64907;SDS011;69061;52.236;5.188;2023-09-18T13:35:16;16.73;;;9.90;;
64907;SDS011;69061;52.236;5.188;2023-09-18T13:37:44;14.68;;;11.38;;
64907;SDS011;69061;52.236;5.188;2023-09-18T13:40:12;14.13;;;11.07;;
64907;SDS011;69061;52.236;5.188;2023-09-18T13:42:38;12.38;;;10.38;;
64907;SDS011;69061;52.236;5.188;2023-09-18T13:45:06;16.67;;;10.10;;
64907;SDS011;69061;52.236;5.188;2023-09-18T13:47:34;17.88;;;9.63;;
64907;SDS011;69061;52.236;5.188;2023-09-18T13:50:10;12.00;;;9.45;;
64907;SDS011;69061;52.236;5.188;2023-09-18T13:52:38;16.50;;;9.75;;
64907;SDS011;69061;52.236;5.188;2023-09-18T13:55:05;15.23;;;9.95;;
64907;SDS011;69061;52.236;5.188;2023-09-18T13:57:34;15.70;;;9.30;;
64907;SDS011;69061;52.236;5.188;2023-09-18T14:00:01;12.50;;;8.50;;
64907;SDS011;69061;52.236;5.188;2023-09-18T14:02:32;11.10;;;8.75;;
64907;SDS011;69061;52.236;5.188;2023-09-18T14:04:58;16.25;;;9.40;;
64907;SDS011;69061;52.236;5.188;2023-09-18T14:07:26;17.05;;;9.85;;
64907;SDS011;69061;52.236;5.188;2023-09-18T14:09:53;13.63;;;9.77;;
64907;SDS011;69061;52.236;5.188;2023-09-18T14:12:19;12.93;;;9.00;;
64907;SDS011;69061;52.236;5.188;2023-09-18T14:14:46;12.80;;;8.88;;
64907;SDS011;69061;52.236;5.188;2023-09-18T14:17:13;13.70;;;9.02;;
64907;SDS011;69061;52.236;5.188;2023-09-18T14:19:41;13.88;;;8.70;;
64907;SDS011;69061;52.236;5.188;2023-09-18T14:22:08;13.55;;;8.15;;
64907;SDS011;69061;52.236;5.188;2023-09-18T14:24:37;11.90;;;7.95;;
64907;SDS011;69061;52.236;5.188;2023-09-18T14:27:04;9.30;;;6.93;;
64907;SDS011;69061;52.236;5.188;2023-09-18T14:29:31;14.68;;;6.75;;
64907;SDS011;69061;52.236;5.188;2023-09-18T14:31:58;12.90;;;6.78;;
64907;SDS011;69061;52.236;5.188;2023-09-18T14:34:25;10.35;;;6.38;;
64907;SDS011;69061;52.236;5.188;2023-09-18T14:36:52;9.13;;;6.85;;
64907;SDS011;69061;52.236;5.188;2023-09-18T14:39:19;10.13;;;5.90;;
64907;SDS011;69061;52.236;5.188;2023-09-18T14:41:47;12.43;;;6.25;;